Overview Statistics Trail Chart Weather Telemetry Raw packets
 

This is the latest recevied weather packets stored in our database for station/object Dunnningn. If no packets are shown the sender has not sent any weather packets the latest 10 day(s).

<< 10 11 12 13 14 15 16 >>
Time Temp. Humidity Pressure Rain* Wind** Luminosity Snow
1788102130 25.56° C 49% 1014.9 hPa 0 mm - - -
1788100331 25° C 52% 1015 hPa 0 mm - - -
1788098531 24.44° C 57% 1015.1 hPa 0 mm - - -
1788096730 24.44° C 59% 1015.3 hPa 0 mm - - -
1788094931 25° C 57% 1015.3 hPa 0 mm - - -
1788093130 25° C 55% 1015.4 hPa 0 mm - - -
1788091330 25.56° C 55% 1015.5 hPa 0 mm - - -
1788089530 23.33° C 61% 1015.7 hPa 0 mm - - -
1788087732 22.78° C 62% 1016 hPa 0 mm - - -
1788085930 22.78° C 62% 1016.1 hPa 0 mm - - -
1788084129 23.33° C 62% 1016 hPa 0 mm - - -
1788082330 21.67° C 68% 1016.3 hPa 0 mm - - -
1788080531 20.56° C 72% 1016.3 hPa 0 mm - - -
1788078729 20.56° C 73% 1016.2 hPa 0 mm - - -
1788076929 19.44° C 75% 1016.1 hPa 0 mm - - -
1788075130 18.89° C 78% 1016.1 hPa 0 mm - - -
1788073329 18.33° C 79% 1015.9 hPa 0 mm - - -
1788071530 17.22° C 84% 1015.9 hPa 0 mm - - -
1788069730 15.56° C 87% 1016 hPa 0 mm - - -
1788067930 14.44° C 87% 1016 hPa 0 mm - - -
1788066130 15° C 85% 1015.8 hPa 0 mm - - -
1788064329 15° C 83% 1015.8 hPa 0 mm - - -
1788062529 15.56° C 82% 1016 hPa 0 mm - - -
1788060729 15.56° C 82% 1016 hPa 0 mm - - -
1788058929 15.56° C 81% 1016.1 hPa 0 mm - - -

* Rain since midnight (hover to see other rain measurements)
** Current wind speed in m/s (hover to see current wind gust speed)